Time;durP1;ratioP1;P1;durP2;ratioP2;P2;SDS_P1;SDS_P2;PMS_P1;PMS_P2;Temp;Humidity;BMP_temperature;BMP_pressure;BME280_temperature;BME280_humidity;BME280_pressure;Samples;Min_cycle;Max_cycle;Signal;HPM_P1;HPM_P2
2021/09/23 00:00:10;;;;;;;20.45;9.02;;;12.50;99.90;;;;;;4987759;28;20054;-70
2021/09/23 00:05:10;;;;;;;23.02;8.65;;;12.60;99.90;;;;;;4989722;28;20033;-70
2021/09/23 00:07:36;;;;;;;19.75;8.35;;;12.60;99.90;;;;;;4989990;28;20065;-70
2021/09/23 00:10:02;;;;;;;18.05;8.18;;;12.50;99.90;;;;;;4989333;28;20060;-71
2021/09/23 00:12:27;;;;;;;18.85;8.32;;;12.50;99.90;;;;;;4988625;28;20125;-69
2021/09/23 00:14:53;;;;;;;21.60;8.30;;;12.50;99.90;;;;;;4988431;28;20096;-70
2021/09/23 00:17:19;;;;;;;21.05;8.52;;;12.50;99.90;;;;;;4988128;28;20081;-70
2021/09/23 00:19:44;;;;;;;18.25;8.38;;;12.50;99.90;;;;;;4988343;28;20030;-70
2021/09/23 00:22:10;;;;;;;18.40;7.15;;;12.50;99.90;;;;;;4988141;28;20034;-69
2021/09/23 00:24:35;;;;;;;22.20;9.30;;;12.50;99.90;;;;;;4990334;28;20050;-70
2021/09/23 00:27:03;;;;;;;18.55;9.07;;;12.50;99.90;;;;;;4989942;28;20096;-70
2021/09/23 00:29:29;;;;;;;20.00;8.82;;;12.50;99.90;;;;;;4985691;28;20038;-70
2021/09/23 00:31:55;;;;;;;22.75;8.32;;;12.50;99.90;;;;;;4989420;28;20379;-71
2021/09/23 00:34:20;;;;;;;18.13;8.07;;;12.50;99.90;;;;;;4989768;28;20103;-68
2021/09/23 00:36:46;;;;;;;17.13;8.13;;;12.50;99.90;;;;;;4990056;28;20034;-68
2021/09/23 00:39:12;;;;;;;19.15;8.07;;;12.50;99.90;;;;;;4993174;28;20043;-68
2021/09/23 00:41:37;;;;;;;18.05;7.78;;;12.50;99.90;;;;;;5002771;28;20041;-68
2021/09/23 00:44:17;;;;;;;17.55;8.55;;;12.50;99.90;;;;;;5001223;28;20050;-70
2021/09/23 00:46:43;;;;;;;21.17;8.38;;;12.50;99.90;;;;;;4991153;28;20051;-68
2021/09/23 00:49:09;;;;;;;20.58;9.05;;;12.50;99.90;;;;;;4988987;28;20118;-68
2021/09/23 00:51:35;;;;;;;18.23;8.38;;;12.50;99.90;;;;;;4990517;28;20121;-69
2021/09/23 00:54:04;;;;;;;20.05;8.45;;;12.40;99.90;;;;;;4988560;28;20035;-68
2021/09/23 00:56:30;;;;;;;21.33;10.20;;;12.40;99.90;;;;;;4986028;28;20038;-68
2021/09/23 00:58:57;;;;;;;17.70;8.40;;;12.40;99.90;;;;;;4988126;28;20057;-69
2021/09/23 01:01:23;;;;;;;23.15;8.73;;;12.40;99.90;;;;;;4989699;28;20062;-68
2021/09/23 01:03:48;;;;;;;19.33;8.25;;;12.40;99.90;;;;;;4989675;28;20030;-68
2021/09/23 01:06:14;;;;;;;18.20;8.63;;;12.40;99.90;;;;;;4988290;28;20537;-68
2021/09/23 01:08:40;;;;;;;21.80;8.02;;;12.40;99.90;;;;;;4989509;28;20034;-68
2021/09/23 01:11:06;;;;;;;22.75;8.70;;;12.40;99.90;;;;;;4990028;28;20577;-69
2021/09/23 01:13:32;;;;;;;21.65;9.40;;;12.40;99.90;;;;;;4993023;28;20030;-69
2021/09/23 01:15:57;;;;;;;21.38;9.35;;;12.40;99.90;;;;;;4993351;28;20374;-68
2021/09/23 01:18:23;;;;;;;20.23;8.75;;;12.40;99.90;;;;;;4992722;28;20042;-68
2021/09/23 01:20:50;;;;;;;21.15;8.68;;;12.30;99.90;;;;;;4991938;28;20062;-68
2021/09/23 01:23:16;;;;;;;22.30;9.27;;;12.30;99.90;;;;;;4993216;28;20030;-68
2021/09/23 01:25:41;;;;;;;22.70;7.82;;;12.30;99.90;;;;;;4993368;28;20404;-68
2021/09/23 01:28:08;;;;;;;22.17;8.52;;;12.20;99.90;;;;;;4992709;28;20647;-68
2021/09/23 01:30:33;;;;;;;20.67;8.95;;;12.30;99.90;;;;;;4992889;28;20053;-68
2021/09/23 01:33:00;;;;;;;16.90;8.02;;;12.20;99.90;;;;;;4993262;28;20447;-66
2021/09/23 01:35:25;;;;;;;21.20;9.57;;;12.20;99.90;;;;;;4988744;28;20046;-68
2021/09/23 01:37:51;;;;;;;21.00;9.30;;;12.20;99.90;;;;;;4992948;28;20023;-68
2021/09/23 01:40:16;;;;;;;21.48;9.25;;;12.20;99.90;;;;;;4992473;28;20065;-68
2021/09/23 01:42:43;;;;;;;20.40;9.52;;;12.20;99.90;;;;;;4992811;28;20034;-69
2021/09/23 01:45:10;;;;;;;19.75;8.65;;;12.20;99.90;;;;;;4992525;28;20088;-68
2021/09/23 01:47:39;;;;;;;20.83;9.30;;;12.20;99.90;;;;;;4992898;28;20034;-71
2021/09/23 01:50:05;;;;;;;18.80;8.93;;;12.20;99.90;;;;;;4990621;28;20027;-68
2021/09/23 01:52:31;;;;;;;24.45;9.48;;;12.20;99.90;;;;;;4992439;28;20036;-68
2021/09/23 01:54:56;;;;;;;22.35;9.55;;;12.20;99.90;;;;;;4991732;28;20042;-68
2021/09/23 01:57:22;;;;;;;19.20;8.63;;;12.10;99.90;;;;;;4993364;28;20178;-68
2021/09/23 01:59:47;;;;;;;16.75;8.10;;;12.10;99.90;;;;;;4991365;28;20038;-68
2021/09/23 02:02:13;;;;;;;17.77;8.35;;;12.10;99.90;;;;;;4993883;28;20046;-68
2021/09/23 02:04:38;;;;;;;25.50;9.20;;;12.10;99.90;;;;;;4993373;28;20038;-69
2021/09/23 02:07:05;;;;;;;23.00;9.32;;;12.10;99.90;;;;;;4993767;28;20283;-68
2021/09/23 02:09:32;;;;;;;22.77;8.35;;;12.10;99.90;;;;;;4992847;28;20039;-69
2021/09/23 02:12:00;;;;;;;21.42;8.98;;;12.00;99.90;;;;;;4993137;28;20046;-68
2021/09/23 02:14:29;;;;;;;18.70;8.27;;;12.10;99.90;;;;;;4998812;28;20065;-69
2021/09/23 02:16:55;;;;;;;19.92;8.55;;;12.10;99.90;;;;;;4998416;28;20112;-69
2021/09/23 02:19:20;;;;;;;17.60;8.50;;;12.00;99.90;;;;;;4992430;28;20487;-68
2021/09/23 02:21:48;;;;;;;22.08;8.57;;;12.10;99.90;;;;;;4991164;28;20069;-69
2021/09/23 02:24:13;;;;;;;18.92;8.23;;;12.10;99.90;;;;;;4995905;28;20058;-69
2021/09/23 02:26:39;;;;;;;20.33;8.30;;;12.00;99.90;;;;;;5002954;28;20031;-69
2021/09/23 02:29:05;;;;;;;21.13;8.13;;;12.00;99.90;;;;;;5003214;28;20034;-68
2021/09/23 02:31:30;;;;;;;22.55;10.00;;;12.00;99.90;;;;;;5005799;28;20236;-68
2021/09/23 02:33:56;;;;;;;24.10;9.68;;;12.00;99.90;;;;;;4993345;28;20410;-68
2021/09/23 02:36:21;;;;;;;26.30;9.60;;;11.90;99.90;;;;;;4994429;28;20039;-69
2021/09/23 02:38:47;;;;;;;19.58;9.18;;;11.90;99.90;;;;;;5001896;28;20049;-69
2021/09/23 02:41:13;;;;;;;17.95;9.13;;;11.80;99.90;;;;;;5005940;28;20034;-70
2021/09/23 02:43:38;;;;;;;28.08;10.73;;;11.90;99.90;;;;;;5006804;28;20042;-70
2021/09/23 02:46:04;;;;;;;22.65;9.25;;;11.80;99.90;;;;;;5008813;28;20111;-69
2021/09/23 02:48:29;;;;;;;21.33;9.93;;;11.80;99.90;;;;;;4995500;28;20513;-68
2021/09/23 02:50:55;;;;;;;21.88;9.52;;;11.80;99.90;;;;;;4990104;28;20034;-68
2021/09/23 02:53:21;;;;;;;21.25;9.60;;;11.80;99.90;;;;;;4989305;28;20034;-68
2021/09/23 02:55:46;;;;;;;24.75;10.48;;;11.80;99.90;;;;;;4990505;28;20516;-68
2021/09/23 02:58:12;;;;;;;20.88;8.98;;;11.80;99.90;;;;;;4989287;28;20066;-69
2021/09/23 03:00:37;;;;;;;19.08;9.02;;;11.80;99.90;;;;;;4991235;28;20041;-68
2021/09/23 03:03:04;;;;;;;19.77;9.23;;;11.70;99.90;;;;;;4990322;28;20030;-68
2021/09/23 03:05:29;;;;;;;22.67;9.43;;;11.70;99.90;;;;;;4990823;28;20038;-68
2021/09/23 03:07:55;;;;;;;23.02;10.25;;;11.70;99.90;;;;;;4989027;28;20034;-68
2021/09/23 03:10:21;;;;;;;26.13;10.10;;;11.80;99.90;;;;;;4990959;28;20452;-68
2021/09/23 03:12:46;;;;;;;23.35;9.57;;;11.70;99.90;;;;;;4990982;28;20038;-68
2021/09/23 03:15:12;;;;;;;23.20;9.35;;;11.80;99.90;;;;;;4989383;28;20398;-69
2021/09/23 03:17:38;;;;;;;23.27;10.90;;;11.70;99.90;;;;;;4989827;28;20066;-68
2021/09/23 03:20:04;;;;;;;23.63;9.18;;;11.80;99.90;;;;;;4988640;28;20169;-68
2021/09/23 03:22:29;;;;;;;39.30;10.75;;;11.80;99.90;;;;;;4989248;28;20116;-68
2021/09/23 03:24:55;;;;;;;22.20;9.77;;;11.70;99.90;;;;;;4990027;28;20082;-68
2021/09/23 03:27:21;;;;;;;24.52;10.27;;;11.80;99.90;;;;;;4990907;28;20026;-68
2021/09/23 03:29:47;;;;;;;21.80;9.82;;;11.80;99.90;;;;;;4989878;28;20409;-68
2021/09/23 03:32:13;;;;;;;25.67;11.20;;;11.80;99.90;;;;;;4990050;28;20038;-68
2021/09/23 03:34:38;;;;;;;23.75;9.88;;;11.80;99.90;;;;;;4990540;28;20038;-68
2021/09/23 03:37:04;;;;;;;21.67;10.82;;;11.70;99.90;;;;;;4988641;28;20089;-69
2021/09/23 03:39:30;;;;;;;22.85;10.13;;;11.70;99.90;;;;;;4987410;28;20044;-68
2021/09/23 03:41:55;;;;;;;21.38;10.02;;;11.70;99.90;;;;;;4990824;28;20045;-68
2021/09/23 03:44:21;;;;;;;22.17;10.55;;;11.70;99.90;;;;;;4989065;28;20027;-69
2021/09/23 03:46:46;;;;;;;26.70;10.88;;;11.70;99.90;;;;;;4989191;28;20034;-68
2021/09/23 03:49:12;;;;;;;25.77;10.15;;;11.70;99.90;;;;;;4989891;28;20533;-68
2021/09/23 03:51:37;;;;;;;26.23;11.75;;;11.80;99.90;;;;;;4990392;28;20129;-68
2021/09/23 03:54:03;;;;;;;22.75;11.10;;;11.80;99.90;;;;;;4989631;28;20037;-68
2021/09/23 03:56:29;;;;;;;23.80;10.65;;;11.80;99.90;;;;;;4989195;28;20043;-69
2021/09/23 03:58:55;;;;;;;22.98;10.30;;;11.80;99.90;;;;;;4990139;28;20461;-68
2021/09/23 04:01:20;;;;;;;25.25;11.27;;;11.80;99.90;;;;;;4990166;28;20053;-68
2021/09/23 04:03:46;;;;;;;21.67;10.70;;;11.80;99.90;;;;;;4990346;28;20058;-68
2021/09/23 04:06:12;;;;;;;25.10;11.88;;;11.80;99.90;;;;;;4990262;28;20076;-69
2021/09/23 04:08:37;;;;;;;24.33;11.45;;;11.80;99.90;;;;;;4989890;28;20405;-69
2021/09/23 04:11:03;;;;;;;36.35;12.88;;;11.90;99.90;;;;;;4990052;28;20093;-68
2021/09/23 04:13:29;;;;;;;25.90;11.52;;;11.90;99.90;;;;;;4990211;28;20446;-68
2021/09/23 04:15:55;;;;;;;24.05;11.20;;;11.90;99.90;;;;;;4988865;28;20039;-68
2021/09/23 04:18:20;;;;;;;29.05;12.60;;;11.90;99.90;;;;;;4988628;28;20560;-68
2021/09/23 04:20:47;;;;;;;29.70;13.27;;;11.90;99.90;;;;;;4990047;28;20517;-69
2021/09/23 04:23:14;;;;;;;27.70;12.48;;;11.90;99.90;;;;;;4989577;28;20042;-69
2021/09/23 04:25:40;;;;;;;32.85;13.25;;;11.90;99.90;;;;;;4989966;28;20099;-68
2021/09/23 04:28:05;;;;;;;28.17;12.77;;;11.90;99.90;;;;;;4989997;28;20134;-69
2021/09/23 04:30:31;;;;;;;28.15;13.25;;;11.90;99.90;;;;;;4989899;28;20445;-69
2021/09/23 04:32:57;;;;;;;31.77;13.90;;;11.90;99.90;;;;;;4995539;28;20031;-68
2021/09/23 04:35:23;;;;;;;33.83;13.95;;;12.00;99.90;;;;;;4996411;28;20042;-69
2021/09/23 04:37:48;;;;;;;27.67;12.98;;;11.90;99.90;;;;;;4995717;28;20402;-68
2021/09/23 04:40:14;;;;;;;27.38;12.90;;;11.90;99.90;;;;;;4989248;28;20045;-70
2021/09/23 04:42:41;;;;;;;43.28;14.75;;;11.90;99.90;;;;;;4990855;28;20050;-68
2021/09/23 04:45:08;;;;;;;32.53;14.25;;;11.90;99.90;;;;;;4989726;28;20118;-69
2021/09/23 04:47:34;;;;;;;33.20;14.40;;;11.90;99.90;;;;;;4991541;28;20038;-68
2021/09/23 04:49:59;;;;;;;32.00;13.77;;;11.90;99.90;;;;;;4993846;28;20552;-68
2021/09/23 04:52:25;;;;;;;28.13;14.13;;;11.90;99.90;;;;;;4993383;28;20046;-69
2021/09/23 04:54:52;;;;;;;32.88;14.95;;;12.00;99.90;;;;;;4998581;28;20030;-69
2021/09/23 04:57:18;;;;;;;31.98;14.73;;;11.90;99.90;;;;;;4998077;28;20386;-69
2021/09/23 04:59:43;;;;;;;31.95;15.35;;;12.00;99.90;;;;;;4998685;28;20031;-68
2021/09/23 05:02:09;;;;;;;36.33;15.25;;;12.00;99.90;;;;;;5001174;28;20538;-68
2021/09/23 05:04:34;;;;;;;32.65;15.30;;;11.90;99.90;;;;;;4994011;28;20401;-68
2021/09/23 05:07:00;;;;;;;38.17;16.80;;;12.00;99.90;;;;;;4993017;28;20026;-64
2021/09/23 05:09:26;;;;;;;37.78;17.05;;;12.00;99.90;;;;;;4985551;28;20031;-68
2021/09/23 05:11:51;;;;;;;37.95;16.52;;;12.00;99.90;;;;;;4995000;28;20038;-68
2021/09/23 05:14:17;;;;;;;41.80;18.13;;;12.00;99.90;;;;;;4990338;28;20597;-68
2021/09/23 05:16:44;;;;;;;38.40;17.75;;;12.00;99.90;;;;;;4990118;28;21943;-69
2021/09/23 05:19:13;;;;;;;46.83;19.40;;;12.10;99.90;;;;;;4991636;28;20050;-69
2021/09/23 05:21:38;;;;;;;42.35;18.45;;;12.10;99.90;;;;;;4994062;28;20376;-69
2021/09/23 05:24:04;;;;;;;44.72;17.90;;;12.10;99.90;;;;;;4990373;28;20057;-69
2021/09/23 05:26:30;;;;;;;46.38;19.35;;;12.20;99.90;;;;;;4990959;28;20089;-69
2021/09/23 05:28:55;;;;;;;48.05;19.45;;;12.20;99.90;;;;;;4998399;28;20026;-70
2021/09/23 05:31:21;;;;;;;43.17;18.75;;;12.30;99.90;;;;;;4989946;28;20038;-69
2021/09/23 05:33:47;;;;;;;41.30;19.60;;;12.30;99.90;;;;;;4991348;28;20077;-69
2021/09/23 05:36:14;;;;;;;43.03;19.25;;;12.40;99.90;;;;;;4992965;28;20343;-69
2021/09/23 05:38:40;;;;;;;40.67;18.40;;;12.40;99.90;;;;;;4988515;28;20421;-70
2021/09/23 05:41:06;;;;;;;45.95;21.02;;;12.50;99.90;;;;;;4989708;28;20046;-70
2021/09/23 05:43:31;;;;;;;43.03;18.92;;;12.50;99.90;;;;;;4989259;28;20038;-70
2021/09/23 05:45:57;;;;;;;46.25;19.02;;;12.50;99.90;;;;;;4990094;28;20044;-69
2021/09/23 05:48:22;;;;;;;52.03;19.80;;;12.50;99.90;;;;;;4988005;28;20663;-70
2021/09/23 05:50:48;;;;;;;52.13;20.83;;;12.60;99.90;;;;;;4996616;28;20038;-69
2021/09/23 05:53:14;;;;;;;49.70;18.67;;;12.60;99.90;;;;;;4990037;28;20089;-69
2021/09/23 05:55:39;;;;;;;43.35;19.52;;;12.70;99.90;;;;;;4989706;28;20149;-70
2021/09/23 05:58:05;;;;;;;42.05;18.17;;;12.70;99.90;;;;;;4989375;28;20097;-69
2021/09/23 06:00:31;;;;;;;37.75;18.02;;;12.70;99.90;;;;;;4988268;28;20085;-69
2021/09/23 06:02:57;;;;;;;51.22;19.42;;;12.70;99.90;;;;;;4989429;28;20122;-69
2021/09/23 06:05:23;;;;;;;48.55;19.90;;;12.90;99.90;;;;;;4989775;28;20130;-70
2021/09/23 06:07:49;;;;;;;42.13;18.88;;;12.90;99.90;;;;;;4992055;28;20129;-69
2021/09/23 06:10:15;;;;;;;49.58;18.67;;;12.90;99.90;;;;;;4989242;28;20038;-70
2021/09/23 06:12:41;;;;;;;53.25;19.55;;;13.00;99.90;;;;;;4987676;28;20454;-69
2021/09/23 06:15:08;;;;;;;44.42;18.35;;;13.10;99.90;;;;;;4992708;28;20057;-69
2021/09/23 06:17:34;;;;;;;41.53;18.52;;;13.20;99.90;;;;;;4992801;28;20121;-69
2021/09/23 06:20:00;;;;;;;35.65;16.88;;;13.30;99.90;;;;;;4992531;28;20034;-69
2021/09/23 06:22:26;;;;;;;40.13;17.13;;;13.40;99.90;;;;;;4990477;28;20093;-70
2021/09/23 06:24:51;;;;;;;42.17;18.65;;;13.40;99.90;;;;;;4989404;28;20038;-68
2021/09/23 06:27:17;;;;;;;49.63;19.02;;;13.50;99.90;;;;;;4989717;28;20101;-69
2021/09/23 06:29:43;;;;;;;32.92;16.55;;;13.60;99.90;;;;;;4988757;28;20118;-70
2021/09/23 06:32:09;;;;;;;35.00;16.05;;;13.60;99.90;;;;;;4994766;28;20057;-68
2021/09/23 06:34:34;;;;;;;38.22;17.20;;;13.70;99.90;;;;;;4992025;28;20046;-70
2021/09/23 06:37:00;;;;;;;35.38;16.20;;;13.80;99.90;;;;;;4991336;28;20136;-71
2021/09/23 06:39:25;;;;;;;34.17;16.83;;;13.80;99.90;;;;;;4990292;28;20042;-71
2021/09/23 06:41:51;;;;;;;39.25;17.58;;;13.80;99.90;;;;;;4993243;28;20113;-71
2021/09/23 06:44:17;;;;;;;42.85;17.02;;;13.90;99.90;;;;;;4987933;28;20038;-71
2021/09/23 06:46:42;;;;;;;35.47;16.65;;;13.80;99.90;;;;;;4991370;28;20049;-72
2021/09/23 06:49:08;;;;;;;39.53;15.82;;;13.80;99.90;;;;;;4991353;28;20037;-72
2021/09/23 06:51:34;;;;;;;38.33;17.40;;;13.80;99.90;;;;;;4991546;28;20038;-71
2021/09/23 06:53:59;;;;;;;37.28;16.23;;;13.80;99.90;;;;;;4988693;28;20081;-71
2021/09/23 06:56:25;;;;;;;40.05;16.90;;;13.80;99.90;;;;;;4987823;28;20074;-71
2021/09/23 06:58:51;;;;;;;43.20;17.77;;;13.90;99.90;;;;;;4986844;28;20062;-71
2021/09/23 07:01:16;;;;;;;40.05;18.20;;;13.80;99.90;;;;;;4989825;28;20030;-71
2021/09/23 07:03:42;;;;;;;31.40;15.27;;;14.00;99.90;;;;;;4986940;28;20030;-71
2021/09/23 07:06:08;;;;;;;41.13;18.33;;;14.10;99.90;;;;;;4990555;28;20043;-72
2021/09/23 07:08:33;;;;;;;35.03;17.75;;;14.20;99.90;;;;;;4995290;28;20035;-72
2021/09/23 07:10:59;;;;;;;40.50;17.42;;;14.40;99.90;;;;;;4989917;28;20037;-71
2021/09/23 07:13:24;;;;;;;37.58;17.98;;;14.50;99.90;;;;;;4988496;28;20462;-71
2021/09/23 07:15:50;;;;;;;39.55;16.08;;;14.60;99.90;;;;;;4994724;28;20038;-71
2021/09/23 07:18:16;;;;;;;36.67;16.02;;;14.80;99.90;;;;;;4988922;28;20081;-71
2021/09/23 07:20:41;;;;;;;36.40;16.73;;;14.90;99.90;;;;;;4991084;28;20429;-71
2021/09/23 07:23:07;;;;;;;33.58;16.27;;;15.00;99.90;;;;;;4991074;28;20049;-71
2021/09/23 07:25:33;;;;;;;40.25;17.55;;;15.10;99.90;;;;;;4984749;28;20035;-69
2021/09/23 07:28:00;;;;;;;37.63;15.45;;;15.20;99.90;;;;;;4989567;28;20023;-71
2021/09/23 07:30:26;;;;;;;41.72;15.43;;;15.30;99.90;;;;;;4985037;28;20062;-71
2021/09/23 07:32:51;;;;;;;35.80;15.70;;;15.40;99.90;;;;;;4988264;28;20151;-71
2021/09/23 07:35:18;;;;;;;35.05;15.85;;;15.50;99.90;;;;;;4985360;28;20034;-71
2021/09/23 07:37:44;;;;;;;31.65;15.73;;;15.50;99.90;;;;;;4987932;28;20034;-71
2021/09/23 07:40:11;;;;;;;36.55;16.75;;;15.60;99.90;;;;;;4986354;28;20048;-71
2021/09/23 07:42:38;;;;;;;33.60;15.60;;;15.80;99.90;;;;;;4986246;28;20121;-71
2021/09/23 07:45:06;;;;;;;36.03;14.68;;;15.80;99.90;;;;;;4992864;28;20117;-72
2021/09/23 07:47:32;;;;;;;30.77;14.50;;;15.90;99.90;;;;;;4996150;28;20390;-71
2021/09/23 07:49:58;;;;;;;30.52;15.00;;;16.00;99.90;;;;;;4987859;28;20030;-72
2021/09/23 07:52:24;;;;;;;31.73;13.82;;;16.00;99.90;;;;;;4992200;28;20046;-70
2021/09/23 07:54:54;;;;;;;30.55;13.35;;;16.10;99.90;;;;;;4988794;28;20030;-70
2021/09/23 07:57:20;;;;;;;33.35;14.98;;;16.10;99.90;;;;;;4991491;28;20405;-71
2021/09/23 07:59:45;;;;;;;31.38;14.57;;;16.20;99.90;;;;;;4986485;28;20030;-71
2021/09/23 08:02:11;;;;;;;28.73;13.40;;;16.30;99.90;;;;;;4987846;28;20117;-71
2021/09/23 08:04:36;;;;;;;34.33;13.75;;;16.30;99.90;;;;;;4989059;28;20042;-71
2021/09/23 08:07:02;;;;;;;27.75;13.15;;;16.50;99.90;;;;;;4986928;28;20027;-71
2021/09/23 08:09:28;;;;;;;29.83;12.88;;;16.50;99.90;;;;;;4988167;28;20347;-71
2021/09/23 08:11:53;;;;;;;26.33;12.77;;;16.60;99.90;;;;;;4987236;28;20030;-71
2021/09/23 08:14:19;;;;;;;24.77;11.80;;;16.80;99.90;;;;;;4991349;28;20118;-71
2021/09/23 08:16:45;;;;;;;23.90;10.70;;;17.00;99.90;;;;;;4990052;28;20065;-72
2021/09/23 08:19:11;;;;;;;23.45;10.27;;;17.30;99.90;;;;;;4989899;28;20038;-72
2021/09/23 08:21:37;;;;;;;25.40;9.52;;;17.40;99.90;;;;;;4988670;28;20081;-72
2021/09/23 08:24:03;;;;;;;19.80;8.07;;;17.50;99.90;;;;;;4987364;28;20114;-71
2021/09/23 08:26:29;;;;;;;25.45;9.15;;;17.50;99.90;;;;;;4986557;28;20062;-72
2021/09/23 08:28:55;;;;;;;17.25;8.57;;;17.50;99.90;;;;;;4988348;28;20065;-71
2021/09/23 08:31:22;;;;;;;19.90;8.52;;;17.40;99.90;;;;;;4990871;28;20029;-71
2021/09/23 08:33:49;;;;;;;19.10;8.68;;;17.40;99.90;;;;;;4993160;28;20038;-70
2021/09/23 08:36:15;;;;;;;17.73;8.23;;;17.40;99.90;;;;;;4989687;28;20038;-70
2021/09/23 08:38:41;;;;;;;20.38;8.85;;;17.40;99.90;;;;;;4988304;28;20041;-70
2021/09/23 08:41:06;;;;;;;20.85;8.43;;;17.40;99.90;;;;;;4990470;28;20046;-69
2021/09/23 08:43:33;;;;;;;18.48;9.23;;;17.20;99.90;;;;;;4990819;28;20038;-70
2021/09/23 08:46:01;;;;;;;20.33;8.60;;;17.30;99.90;;;;;;4991902;28;20030;-70
2021/09/23 08:48:27;;;;;;;21.25;8.50;;;17.20;99.90;;;;;;4990067;28;20051;-70
2021/09/23 08:50:53;;;;;;;23.45;8.80;;;17.10;99.90;;;;;;4993887;28;20034;-70
2021/09/23 08:53:18;;;;;;;16.50;7.78;;;17.10;99.90;;;;;;4991159;28;20045;-69
2021/09/23 08:55:44;;;;;;;26.38;9.88;;;17.20;99.90;;;;;;4992929;28;20030;-71
2021/09/23 08:58:10;;;;;;;16.73;7.82;;;17.20;99.90;;;;;;4989830;28;20041;-71
2021/09/23 09:00:57;;;;;;;18.55;7.45;;;17.30;99.90;;;;;;4987340;28;20069;-72
2021/09/23 09:03:25;;;;;;;12.25;4.05;;;17.30;99.90;;;;;;4989782;28;20066;-71
2021/09/23 09:05:55;;;;;;;4.72;2.05;;;17.40;99.90;;;;;;4983734;28;20070;-71
2021/09/23 09:08:22;;;;;;;7.13;1.77;;;17.50;99.90;;;;;;4986520;28;20038;-70
2021/09/23 09:10:48;;;;;;;9.13;1.45;;;17.50;99.90;;;;;;4993851;28;20046;-70
2021/09/23 09:13:14;;;;;;;6.28;1.88;;;17.50;99.90;;;;;;4984268;28;20044;-71
2021/09/23 09:15:42;;;;;;;6.22;1.63;;;17.50;99.90;;;;;;4990305;28;20050;-69
2021/09/23 09:18:22;;;;;;;4.68;2.08;;;17.50;99.90;;;;;;4973199;28;20664;-70
2021/09/23 09:21:00;;;;;;;6.43;1.85;;;17.60;99.90;;;;;;4991383;28;20512;-71
2021/09/23 09:23:36;;;;;;;5.40;0.90;;;17.90;99.90;;;;;;4991209;28;20038;-70
2021/09/23 09:26:02;;;;;;;6.97;1.10;;;18.20;99.90;;;;;;4987947;28;20041;-70
2021/09/23 09:28:28;;;;;;;5.40;0.95;;;18.60;99.90;;;;;;4987093;28;20041;-71
2021/09/23 09:30:58;;;;;;;13.50;1.38;;;18.90;99.90;;;;;;4988594;28;20135;-71
2021/09/23 09:33:41;;;;;;;3.80;0.93;;;19.20;99.90;;;;;;4991632;28;20052;-69
2021/09/23 09:36:27;;;;;;;8.80;1.05;;;19.20;99.90;;;;;;4994196;28;20054;-70
2021/09/23 09:38:55;;;;;;;4.35;1.20;;;19.10;99.90;;;;;;4989831;28;20046;-70
2021/09/23 09:41:29;;;;;;;4.25;1.00;;;19.00;99.90;;;;;;4989582;28;20034;-70
2021/09/23 09:43:59;;;;;;;3.15;0.95;;;19.00;99.90;;;;;;4985712;28;20034;-72
2021/09/23 09:46:34;;;;;;;4.95;0.80;;;19.20;99.90;;;;;;4989853;28;20089;-72
2021/09/23 09:49:00;;;;;;;1.55;0.68;;;19.40;99.90;;;;;;4995824;28;20037;-71
2021/09/23 09:51:35;;;;;;;6.57;1.10;;;19.60;99.90;;;;;;4985963;28;20042;-68
2021/09/23 09:54:02;;;;;;;4.63;1.02;;;19.40;99.90;;;;;;4989450;28;20656;-70
2021/09/23 09:56:28;;;;;;;3.33;0.88;;;19.30;99.90;;;;;;4989579;28;20046;-70
2021/09/23 09:59:14;;;;;;;5.82;1.10;;;19.20;99.90;;;;;;4993253;28;20030;-69
2021/09/23 10:01:44;;;;;;;3.03;1.10;;;19.10;99.90;;;;;;4994881;28;20363;-69
2021/09/23 10:04:11;;;;;;;4.90;1.08;;;19.10;99.90;;;;;;4993486;28;20041;-69
2021/09/23 10:06:38;;;;;;;6.20;1.02;;;18.90;99.90;;;;;;4991017;28;20038;-69
2021/09/23 10:09:05;;;;;;;5.35;1.05;;;18.90;99.90;;;;;;4993555;28;20038;-70
2021/09/23 10:11:31;;;;;;;3.90;0.77;;;18.80;99.90;;;;;;4992827;28;20124;-71
2021/09/23 10:13:58;;;;;;;4.22;0.77;;;18.80;99.90;;;;;;4992843;28;20125;-70
2021/09/23 10:16:24;;;;;;;9.60;1.08;;;18.80;99.90;;;;;;4980920;28;20053;-70
2021/09/23 10:18:53;;;;;;;4.10;0.88;;;18.80;99.90;;;;;;4985741;28;20170;-70
2021/09/23 10:21:19;;;;;;;2.38;0.73;;;18.80;99.90;;;;;;4989712;28;20022;-70
2021/09/23 10:23:45;;;;;;;4.30;1.33;;;18.70;99.90;;;;;;4988052;28;20042;-70
2021/09/23 10:26:15;;;;;;;2.45;0.68;;;18.50;99.90;;;;;;4991566;28;20033;-70
2021/09/23 10:28:45;;;;;;;2.10;1.05;;;18.50;99.90;;;;;;4986941;28;20594;-70
2021/09/23 10:31:15;;;;;;;4.35;0.60;;;18.50;99.90;;;;;;4986253;28;20506;-70
2021/09/23 10:33:41;;;;;;;3.75;0.82;;;18.60;99.90;;;;;;4986981;28;20046;-71
2021/09/23 10:36:07;;;;;;;9.95;1.45;;;18.70;99.90;;;;;;4987149;28;20884;-70
2021/09/23 10:38:35;;;;;;;4.53;0.63;;;18.70;99.90;;;;;;4983956;28;20131;-70
2021/09/23 10:41:02;;;;;;;3.67;0.80;;;18.80;99.90;;;;;;4985712;28;20053;-70
2021/09/23 10:43:29;;;;;;;12.40;1.15;;;18.80;99.90;;;;;;4982822;28;20042;-70
2021/09/23 10:45:55;;;;;;;5.13;0.82;;;18.90;99.90;;;;;;4983791;28;20452;-71
2021/09/23 10:48:22;;;;;;;4.78;0.63;;;18.90;99.90;;;;;;4985959;28;20680;-70
2021/09/23 10:50:49;;;;;;;5.35;1.55;;;18.80;99.90;;;;;;4988798;28;20040;-70
2021/09/23 10:53:15;;;;;;;2.53;0.90;;;18.90;99.90;;;;;;4988921;28;20481;-72
2021/09/23 10:55:42;;;;;;;5.72;1.33;;;19.00;99.90;;;;;;4987200;28;20046;-69
2021/09/23 10:58:10;;;;;;;2.42;1.00;;;19.00;99.90;;;;;;4987986;28;20030;-71
2021/09/23 11:00:37;;;;;;;7.65;1.30;;;19.10;99.90;;;;;;4986435;28;20634;-70
2021/09/23 11:03:11;;;;;;;2.95;1.13;;;19.10;99.90;;;;;;4986914;28;20142;-69
2021/09/23 11:05:39;;;;;;;3.33;0.90;;;19.30;99.90;;;;;;4990115;28;20045;-72
2021/09/23 11:08:10;;;;;;;3.78;1.13;;;19.20;99.90;;;;;;4987239;28;20169;-71
2021/09/23 11:10:43;;;;;;;8.05;1.67;;;19.30;99.90;;;;;;4988200;28;20050;-71
2021/09/23 11:13:11;;;;;;;3.33;0.88;;;19.40;99.90;;;;;;4988786;28;20049;-71
2021/09/23 11:15:40;;;;;;;2.70;0.60;;;19.60;99.90;;;;;;4988504;28;20125;-71
2021/09/23 11:18:08;;;;;;;2.78;0.70;;;19.90;99.90;;;;;;4985514;28;20038;-71
2021/09/23 11:20:34;;;;;;;8.35;1.65;;;20.10;99.90;;;;;;4987481;28;20050;-70
2021/09/23 11:23:04;;;;;;;2.30;0.77;;;20.40;99.90;;;;;;4991315;28;20026;-71
2021/09/23 11:25:33;;;;;;;4.97;0.82;;;20.50;99.90;;;;;;4987664;28;20065;-70
2021/09/23 11:28:00;;;;;;;7.20;0.88;;;20.50;99.90;;;;;;4985987;28;20390;-72
2021/09/23 11:30:30;;;;;;;1.10;0.60;;;20.60;99.90;;;;;;4985706;28;20053;-72
2021/09/23 11:32:59;;;;;;;2.33;0.73;;;20.50;99.90;;;;;;4984038;28;20034;-71
2021/09/23 11:35:30;;;;;;;2.35;1.00;;;20.50;99.90;;;;;;4988794;28;20038;-72
2021/09/23 11:37:57;;;;;;;3.33;0.73;;;20.60;99.90;;;;;;4990709;28;20111;-70
2021/09/23 11:40:25;;;;;;;5.47;0.80;;;20.60;99.90;;;;;;4987589;28;20160;-71
2021/09/23 11:42:51;;;;;;;1.83;0.75;;;20.50;99.90;;;;;;4986101;28;20062;-71
2021/09/23 11:45:27;;;;;;;5.18;0.60;;;20.40;99.90;;;;;;4991270;28;20069;-72
2021/09/23 11:48:03;;;;;;;3.42;0.88;;;20.40;99.90;;;;;;4986180;28;20046;-71
2021/09/23 11:50:44;;;;;;;4.85;0.73;;;20.20;99.90;;;;;;4984827;28;20072;-72
2021/09/23 11:53:31;;;;;;;7.43;1.23;;;20.20;99.90;;;;;;4988298;28;20347;-72
2021/09/23 11:56:17;;;;;;;3.47;0.93;;;20.20;99.90;;;;;;4984264;28;20042;-71
2021/09/23 11:58:49;;;;;;;3.60;0.90;;;20.40;99.90;;;;;;4984946;28;20126;-68
2021/09/23 12:01:20;;;;;;;3.53;0.70;;;20.40;99.90;;;;;;4987939;28;20038;-69
2021/09/23 12:03:46;;;;;;;2.92;0.50;;;20.40;99.90;;;;;;4986846;28;20525;-71
2021/09/23 12:06:17;;;;;;;3.45;0.50;;;20.40;99.90;;;;;;4991370;28;20037;-71
2021/09/23 12:08:42;;;;;;;5.32;0.55;;;20.40;99.90;;;;;;4990783;28;20113;-72
2021/09/23 12:11:11;;;;;;;2.92;0.93;;;20.40;99.90;;;;;;4989573;28;20577;-71
2021/09/23 12:13:45;;;;;;;2.38;0.50;;;20.40;99.90;;;;;;4984895;28;20126;-71
2021/09/23 12:16:15;;;;;;;2.70;0.40;;;20.30;99.90;;;;;;4988983;28;20496;-72
2021/09/23 12:18:43;;;;;;;3.55;0.70;;;20.20;99.90;;;;;;4984297;28;20053;-68
2021/09/23 12:21:20;;;;;;;4.55;0.52;;;20.20;99.90;;;;;;4984331;28;20489;-70
2021/09/23 12:23:53;;;;;;;2.67;0.63;;;20.10;99.90;;;;;;4988698;28;20041;-71
2021/09/23 12:26:36;;;;;;;1.50;0.50;;;20.00;99.90;;;;;;4984766;28;20042;-72
2021/09/23 12:29:06;;;;;;;3.90;0.50;;;19.90;99.90;;;;;;4989805;28;20494;-72
2021/09/23 12:31:59;;;;;;;5.05;0.73;;;19.80;99.90;;;;;;4989137;28;20062;-68
2021/09/23 12:34:26;;;;;;;5.70;0.55;;;19.80;99.90;;;;;;4987577;28;20064;-72
2021/09/23 12:37:05;;;;;;;5.55;0.90;;;19.60;99.90;;;;;;4986267;28;20542;-71